sensor_id;sensor_type;location;lat;lon;timestamp;pressure;altitude;pressure_sealevel;temperature;humidity
4392;BME280;2210;51.938;8.488;2023-07-13T00:03:51;100310.25;;;18.70;81.19
4392;BME280;2210;51.938;8.488;2023-07-13T00:07:52;100311.97;;;18.66;80.44
4392;BME280;2210;51.938;8.488;2023-07-13T00:11:55;100313.19;;;18.60;82.34
4392;BME280;2210;51.938;8.488;2023-07-13T00:15:57;100321.25;;;18.62;81.77
4392;BME280;2210;51.938;8.488;2023-07-13T00:19:58;100329.75;;;18.51;81.96
4392;BME280;2210;51.938;8.488;2023-07-13T00:23:58;100323.38;;;18.46;83.10
4392;BME280;2210;51.938;8.488;2023-07-13T00:27:59;100331.25;;;18.44;83.87
4392;BME280;2210;51.938;8.488;2023-07-13T00:32:04;100332.19;;;18.34;83.99
4392;BME280;2210;51.938;8.488;2023-07-13T00:36:05;100334.69;;;18.35;84.88
4392;BME280;2210;51.938;8.488;2023-07-13T00:40:15;100332.53;;;18.27;85.06
4392;BME280;2210;51.938;8.488;2023-07-13T00:44:18;100334.28;;;18.18;85.21
4392;BME280;2210;51.938;8.488;2023-07-13T00:48:20;100339.59;;;18.14;85.33
4392;BME280;2210;51.938;8.488;2023-07-13T00:52:27;100324.56;;;18.10;85.60
4392;BME280;2210;51.938;8.488;2023-07-13T00:56:32;100324.91;;;18.03;85.03
4392;BME280;2210;51.938;8.488;2023-07-13T01:00:36;100331.72;;;17.92;87.82
4392;BME280;2210;51.938;8.488;2023-07-13T01:04:37;100325.03;;;17.88;87.90
4392;BME280;2210;51.938;8.488;2023-07-13T01:08:38;100337.94;;;17.79;88.26
4392;BME280;2210;51.938;8.488;2023-07-13T01:12:40;100328.97;;;17.82;88.86
4392;BME280;2210;51.938;8.488;2023-07-13T01:16:46;100323.09;;;17.83;88.42
4392;BME280;2210;51.938;8.488;2023-07-13T01:25:20;100331.41;;;17.94;89.51
4392;BME280;2210;51.938;8.488;2023-07-13T01:29:21;100332.78;;;17.96;89.49
4392;BME280;2210;51.938;8.488;2023-07-13T01:33:22;100328.03;;;17.97;88.53
4392;BME280;2210;51.938;8.488;2023-07-13T01:37:24;100325.22;;;18.02;89.82
4392;BME280;2210;51.938;8.488;2023-07-13T01:41:24;100334.06;;;18.09;89.79
4392;BME280;2210;51.938;8.488;2023-07-13T01:45:27;100330.34;;;18.19;88.21
4392;BME280;2210;51.938;8.488;2023-07-13T01:49:28;100331.72;;;18.22;88.17
4392;BME280;2210;51.938;8.488;2023-07-13T01:53:28;100336.47;;;18.21;92.44
4392;BME280;2210;51.938;8.488;2023-07-13T01:57:29;100334.50;;;18.22;93.29
4392;BME280;2210;51.938;8.488;2023-07-13T02:01:29;100334.50;;;18.22;95.14
4392;BME280;2210;51.938;8.488;2023-07-13T02:05:32;100329.47;;;18.24;96.11
4392;BME280;2210;51.938;8.488;2023-07-13T02:09:32;100326.44;;;18.20;95.69
4392;BME280;2210;51.938;8.488;2023-07-13T02:13:32;100329.81;;;18.17;94.32
4392;BME280;2210;51.938;8.488;2023-07-13T02:17:34;100330.13;;;18.15;94.30
4392;BME280;2210;51.938;8.488;2023-07-13T02:21:35;100334.09;;;18.04;94.91
4392;BME280;2210;51.938;8.488;2023-07-13T02:25:35;100328.00;;;18.02;93.76
4392;BME280;2210;51.938;8.488;2023-07-13T02:29:35;100347.03;;;17.90;95.12
4392;BME280;2210;51.938;8.488;2023-07-13T02:33:38;100336.50;;;17.81;94.87
4392;BME280;2210;51.938;8.488;2023-07-13T02:37:41;100339.03;;;17.78;95.04
4392;BME280;2210;51.938;8.488;2023-07-13T02:41:42;100340.75;;;17.74;95.04
4392;BME280;2210;51.938;8.488;2023-07-13T02:45:45;100334.91;;;17.70;96.53
4392;BME280;2210;51.938;8.488;2023-07-13T02:49:58;100330.50;;;17.64;96.14
4392;BME280;2210;51.938;8.488;2023-07-13T02:53:58;100343.38;;;17.55;95.74
4392;BME280;2210;51.938;8.488;2023-07-13T02:57:58;100336.53;;;17.42;96.99
4392;BME280;2210;51.938;8.488;2023-07-13T03:02:02;100346.53;;;17.43;96.99
4392;BME280;2210;51.938;8.488;2023-07-13T03:06:06;100349.63;;;17.36;97.95
4392;BME280;2210;51.938;8.488;2023-07-13T03:10:11;100349.63;;;17.36;96.74
4392;BME280;2210;51.938;8.488;2023-07-13T03:14:11;100352.88;;;17.48;96.48
4392;BME280;2210;51.938;8.488;2023-07-13T03:18:11;100345.63;;;17.52;96.43
4392;BME280;2210;51.938;8.488;2023-07-13T03:22:11;100347.28;;;17.53;94.78
4392;BME280;2210;51.938;8.488;2023-07-13T03:26:15;100357.88;;;17.57;94.09
4392;BME280;2210;51.938;8.488;2023-07-13T03:30:19;100361.25;;;17.48;94.09
4392;BME280;2210;51.938;8.488;2023-07-13T03:34:19;100360.25;;;17.34;94.77
4392;BME280;2210;51.938;8.488;2023-07-13T03:38:20;100362.47;;;17.32;94.77
4392;BME280;2210;51.938;8.488;2023-07-13T03:42:20;100368.63;;;17.29;94.33
4392;BME280;2210;51.938;8.488;2023-07-13T03:46:20;100370.59;;;17.23;95.35
4392;BME280;2210;51.938;8.488;2023-07-13T03:50:24;100379.53;;;17.20;95.39
4392;BME280;2210;51.938;8.488;2023-07-13T03:54:24;100388.72;;;17.21;94.73
4392;BME280;2210;51.938;8.488;2023-07-13T03:58:29;100384.28;;;17.14;94.54
4392;BME280;2210;51.938;8.488;2023-07-13T04:02:30;100387.63;;;17.16;94.27
4392;BME280;2210;51.938;8.488;2023-07-13T04:06:36;100395.50;;;16.94;94.09
4392;BME280;2210;51.938;8.488;2023-07-13T04:10:40;100391.06;;;16.88;95.87
4392;BME280;2210;51.938;8.488;2023-07-13T04:14:46;100400.22;;;16.83;94.98
4392;BME280;2210;51.938;8.488;2023-07-13T04:18:47;100391.31;;;17.01;92.78
4392;BME280;2210;51.938;8.488;2023-07-13T04:22:48;100393.81;;;17.03;92.16
4392;BME280;2210;51.938;8.488;2023-07-13T04:26:48;100395.47;;;17.04;91.32
4392;BME280;2210;51.938;8.488;2023-07-13T04:30:52;100406.31;;;17.11;90.58
4392;BME280;2210;51.938;8.488;2023-07-13T04:34:52;100401.84;;;17.15;91.14
4392;BME280;2210;51.938;8.488;2023-07-13T04:38:55;100405.44;;;17.21;90.38
4392;BME280;2210;51.938;8.488;2023-07-13T04:42:56;100408.75;;;17.23;91.10
4392;BME280;2210;51.938;8.488;2023-07-13T04:46:56;100414.31;;;17.33;89.47
4392;BME280;2210;51.938;8.488;2023-07-13T04:51:00;100413.72;;;17.36;89.97
4392;BME280;2210;51.938;8.488;2023-07-13T04:55:03;100406.19;;;17.42;86.87
4392;BME280;2210;51.938;8.488;2023-07-13T04:59:10;100402.53;;;17.46;88.75
4392;BME280;2210;51.938;8.488;2023-07-13T05:03:10;100406.31;;;17.66;87.25
4392;BME280;2210;51.938;8.488;2023-07-13T05:07:11;100413.53;;;17.72;85.97
4392;BME280;2210;51.938;8.488;2023-07-13T05:11:11;100412.34;;;17.83;82.41
4392;BME280;2210;51.938;8.488;2023-07-13T05:15:11;100411.22;;;17.84;82.01
4392;BME280;2210;51.938;8.488;2023-07-13T05:19:12;100415.06;;;17.99;81.97
4392;BME280;2210;51.938;8.488;2023-07-13T05:23:12;100423.97;;;18.01;80.36
4392;BME280;2210;51.938;8.488;2023-07-13T05:27:12;100424.56;;;17.98;79.20
4392;BME280;2210;51.938;8.488;2023-07-13T05:31:19;100428.28;;;18.23;78.63
4392;BME280;2210;51.938;8.488;2023-07-13T05:35:19;100436.03;;;18.60;78.17
4392;BME280;2210;51.938;8.488;2023-07-13T05:39:22;100435.34;;;18.44;77.08
4392;BME280;2210;51.938;8.488;2023-07-13T05:43:23;100440.22;;;18.63;77.14
4392;BME280;2210;51.938;8.488;2023-07-13T05:47:24;100436.25;;;18.98;78.71
4392;BME280;2210;51.938;8.488;2023-07-13T05:51:24;100438.63;;;19.10;77.87
4392;BME280;2210;51.938;8.488;2023-07-13T05:55:24;100445.75;;;19.21;78.44
4392;BME280;2210;51.938;8.488;2023-07-13T05:59:25;100441.22;;;19.26;76.97
4392;BME280;2210;51.938;8.488;2023-07-13T06:03:25;100446.47;;;19.32;76.38
4392;BME280;2210;51.938;8.488;2023-07-13T06:07:26;100450.38;;;19.55;74.20
4392;BME280;2210;51.938;8.488;2023-07-13T06:11:27;100446.06;;;19.63;73.11
4392;BME280;2210;51.938;8.488;2023-07-13T06:15:27;100450.03;;;19.81;71.65
4392;BME280;2210;51.938;8.488;2023-07-13T06:19:28;100441.66;;;19.81;70.70
4392;BME280;2210;51.938;8.488;2023-07-13T06:23:29;100449.06;;;19.91;70.19
4392;BME280;2210;51.938;8.488;2023-07-13T06:27:29;100450.78;;;19.87;71.04
4392;BME280;2210;51.938;8.488;2023-07-13T06:31:29;100445.22;;;19.63;74.16
4392;BME280;2210;51.938;8.488;2023-07-13T06:35:33;100452.13;;;19.70;75.48
4392;BME280;2210;51.938;8.488;2023-07-13T06:39:34;100450.34;;;19.99;72.58
4392;BME280;2210;51.938;8.488;2023-07-13T06:43:34;100458.38;;;19.86;74.45
4392;BME280;2210;51.938;8.488;2023-07-13T06:47:35;100457.94;;;19.98;73.84
4392;BME280;2210;51.938;8.488;2023-07-13T06:51:38;100461.69;;;20.27;72.69
4392;BME280;2210;51.938;8.488;2023-07-13T06:55:38;100454.44;;;20.26;71.83
4392;BME280;2210;51.938;8.488;2023-07-13T06:59:39;100459.34;;;20.34;71.07
4392;BME280;2210;51.938;8.488;2023-07-13T07:03:39;100461.81;;;20.35;70.29
4392;BME280;2210;51.938;8.488;2023-07-13T07:07:39;100472.94;;;20.41;72.42
4392;BME280;2210;51.938;8.488;2023-07-13T07:11:46;100470.41;;;20.58;71.00
4392;BME280;2210;51.938;8.488;2023-07-13T07:15:46;100482.44;;;20.59;71.71
4392;BME280;2210;51.938;8.488;2023-07-13T07:19:46;100470.03;;;20.65;71.59
4392;BME280;2210;51.938;8.488;2023-07-13T07:23:51;100482.06;;;20.65;71.52
4392;BME280;2210;51.938;8.488;2023-07-13T07:27:51;100485.88;;;20.55;75.36
4392;BME280;2210;51.938;8.488;2023-07-13T07:31:52;100481.19;;;20.32;74.03
4392;BME280;2210;51.938;8.488;2023-07-13T07:35:52;100475.22;;;20.19;73.72
4392;BME280;2210;51.938;8.488;2023-07-13T07:39:53;100472.47;;;20.52;75.04
4392;BME280;2210;51.938;8.488;2023-07-13T07:43:53;100480.56;;;20.73;74.09
4392;BME280;2210;51.938;8.488;2023-07-13T07:47:53;100470.59;;;20.81;74.75
4392;BME280;2210;51.938;8.488;2023-07-13T07:51:58;100483.59;;;20.38;73.08
4392;BME280;2210;51.938;8.488;2023-07-13T07:55:58;100484.59;;;20.29;75.11
4392;BME280;2210;51.938;8.488;2023-07-13T07:59:58;100469.13;;;20.50;74.37
4392;BME280;2210;51.938;8.488;2023-07-13T08:03:58;100477.63;;;20.45;74.38
4392;BME280;2210;51.938;8.488;2023-07-13T08:07:59;100484.41;;;20.77;76.60
4392;BME280;2210;51.938;8.488;2023-07-13T08:11:59;100485.88;;;20.88;74.44
4392;BME280;2210;51.938;8.488;2023-07-13T08:16:00;100483.56;;;20.58;74.00
4392;BME280;2210;51.938;8.488;2023-07-13T08:20:06;100483.94;;;20.70;72.71
4392;BME280;2210;51.938;8.488;2023-07-13T08:24:07;100487.47;;;20.95;71.06
4392;BME280;2210;51.938;8.488;2023-07-13T08:28:07;100479.88;;;20.95;72.79
4392;BME280;2210;51.938;8.488;2023-07-13T08:32:08;100485.88;;;21.02;69.71
4392;BME280;2210;51.938;8.488;2023-07-13T08:36:09;100487.16;;;21.10;72.20
4392;BME280;2210;51.938;8.488;2023-07-13T08:40:10;100494.94;;;21.13;74.74
4392;BME280;2210;51.938;8.488;2023-07-13T08:44:23;100488.00;;;21.25;70.70
4392;BME280;2210;51.938;8.488;2023-07-13T08:48:37;100488.00;;;21.52;68.27
4392;BME280;2210;51.938;8.488;2023-07-13T08:52:43;100492.81;;;21.66;67.92
4392;BME280;2210;51.938;8.488;2023-07-13T08:56:45;100484.34;;;21.80;68.85
4392;BME280;2210;51.938;8.488;2023-07-13T09:05:18;100488.41;;;21.87;67.48
4392;BME280;2210;51.938;8.488;2023-07-13T09:18:08;100495.22;;;21.59;65.51
4392;BME280;2210;51.938;8.488;2023-07-13T09:22:14;100492.56;;;21.90;67.86
4392;BME280;2210;51.938;8.488;2023-07-13T09:26:19;100475.69;;;22.04;64.89
4392;BME280;2210;51.938;8.488;2023-07-13T09:30:30;100481.66;;;21.88;63.71
4392;BME280;2210;51.938;8.488;2023-07-13T09:34:36;100485.53;;;21.65;64.98
4392;BME280;2210;51.938;8.488;2023-07-13T09:38:36;100485.81;;;21.21;63.71
4392;BME280;2210;51.938;8.488;2023-07-13T09:42:43;100490.81;;;21.52;66.69
4392;BME280;2210;51.938;8.488;2023-07-13T09:46:46;100486.56;;;21.69;63.40
4392;BME280;2210;51.938;8.488;2023-07-13T09:50:48;100483.31;;;21.89;63.69
4392;BME280;2210;51.938;8.488;2023-07-13T09:54:55;100489.22;;;22.02;66.08
4392;BME280;2210;51.938;8.488;2023-07-13T09:58:59;100480.03;;;22.10;61.41
4392;BME280;2210;51.938;8.488;2023-07-13T10:03:20;100491.59;;;22.45;62.76
4392;BME280;2210;51.938;8.488;2023-07-13T10:07:22;100480.25;;;22.00;60.30
4392;BME280;2210;51.938;8.488;2023-07-13T10:11:28;100488.78;;;21.95;63.35
4392;BME280;2210;51.938;8.488;2023-07-13T10:15:30;100490.41;;;21.87;62.91
4392;BME280;2210;51.938;8.488;2023-07-13T10:19:32;100489.72;;;22.04;63.83
4392;BME280;2210;51.938;8.488;2023-07-13T10:23:35;100500.13;;;22.03;61.22
4392;BME280;2210;51.938;8.488;2023-07-13T10:27:36;100497.09;;;22.00;62.73
4392;BME280;2210;51.938;8.488;2023-07-13T10:31:38;100498.56;;;21.97;65.61
4392;BME280;2210;51.938;8.488;2023-07-13T10:35:40;100502.72;;;22.00;63.43
4392;BME280;2210;51.938;8.488;2023-07-13T10:39:42;100494.47;;;22.17;62.21
4392;BME280;2210;51.938;8.488;2023-07-13T10:43:44;100499.75;;;22.19;61.85
4392;BME280;2210;51.938;8.488;2023-07-13T10:47:46;100500.78;;;22.37;60.90
4392;BME280;2210;51.938;8.488;2023-07-13T10:51:46;100496.44;;;22.17;61.39
4392;BME280;2210;51.938;8.488;2023-07-13T11:00:17;100500.25;;;22.35;60.65
4392;BME280;2210;51.938;8.488;2023-07-13T11:04:19;100499.94;;;22.36;62.70
4392;BME280;2210;51.938;8.488;2023-07-13T11:20:37;100492.94;;;22.34;59.63
4392;BME280;2210;51.938;8.488;2023-07-13T11:28:52;100494.00;;;22.61;61.09
4392;BME280;2210;51.938;8.488;2023-07-13T11:33:15;100494.94;;;22.79;58.91
4392;BME280;2210;51.938;8.488;2023-07-13T11:37:19;100495.50;;;22.89;59.09
4392;BME280;2210;51.938;8.488;2023-07-13T11:41:29;100498.22;;;22.72;58.86
4392;BME280;2210;51.938;8.488;2023-07-13T11:45:30;100504.22;;;22.56;59.53
4392;BME280;2210;51.938;8.488;2023-07-13T11:49:31;100506.03;;;22.52;60.17
4392;BME280;2210;51.938;8.488;2023-07-13T11:53:39;100500.25;;;22.35;58.79
4392;BME280;2210;51.938;8.488;2023-07-13T11:57:49;100500.78;;;22.60;60.42
4392;BME280;2210;51.938;8.488;2023-07-13T12:01:52;100491.28;;;23.01;58.81
4392;BME280;2210;51.938;8.488;2023-07-13T12:06:00;100488.69;;;23.36;57.22
4392;BME280;2210;51.938;8.488;2023-07-13T12:10:27;100488.72;;;23.53;57.41
4392;BME280;2210;51.938;8.488;2023-07-13T12:14:29;100489.56;;;23.63;57.02
4392;BME280;2210;51.938;8.488;2023-07-13T12:18:32;100486.22;;;23.43;54.07
4392;BME280;2210;51.938;8.488;2023-07-13T12:22:34;100501.19;;;22.98;54.92
4392;BME280;2210;51.938;8.488;2023-07-13T12:26:37;100494.50;;;22.85;55.89
4392;BME280;2210;51.938;8.488;2023-07-13T12:30:37;100495.91;;;23.28;55.88
4392;BME280;2210;51.938;8.488;2023-07-13T12:34:52;100499.59;;;23.37;55.21
4392;BME280;2210;51.938;8.488;2023-07-13T12:38:58;100501.66;;;22.92;54.79
4392;BME280;2210;51.938;8.488;2023-07-13T12:43:04;100510.53;;;22.85;55.65
4392;BME280;2210;51.938;8.488;2023-07-13T12:47:12;100507.41;;;22.86;56.08
4392;BME280;2210;51.938;8.488;2023-07-13T12:51:13;100505.63;;;22.68;57.95
4392;BME280;2210;51.938;8.488;2023-07-13T12:55:17;100503.84;;;23.26;56.03
4392;BME280;2210;51.938;8.488;2023-07-13T12:59:20;100502.44;;;23.46;55.29
4392;BME280;2210;51.938;8.488;2023-07-13T13:03:26;100503.88;;;23.84;53.50
4392;BME280;2210;51.938;8.488;2023-07-13T13:07:30;100487.47;;;23.77;50.65
4392;BME280;2210;51.938;8.488;2023-07-13T13:11:31;100497.88;;;23.68;50.93
4392;BME280;2210;51.938;8.488;2023-07-13T13:15:32;100484.31;;;23.70;50.01
4392;BME280;2210;51.938;8.488;2023-07-13T13:19:32;100486.00;;;23.88;50.06
4392;BME280;2210;51.938;8.488;2023-07-13T13:23:33;100495.66;;;24.14;48.86
4392;BME280;2210;51.938;8.488;2023-07-13T13:27:33;100489.38;;;24.26;50.87
4392;BME280;2210;51.938;8.488;2023-07-13T13:31:33;100504.25;;;24.35;50.05
4392;BME280;2210;51.938;8.488;2023-07-13T13:35:34;100502.28;;;24.44;48.67
4392;BME280;2210;51.938;8.488;2023-07-13T13:39:35;100499.81;;;24.16;50.25
4392;BME280;2210;51.938;8.488;2023-07-13T13:43:36;100510.44;;;23.62;50.21
4392;BME280;2210;51.938;8.488;2023-07-13T13:47:37;100516.09;;;23.30;50.41
4392;BME280;2210;51.938;8.488;2023-07-13T13:51:37;100535.63;;;23.04;52.22
4392;BME280;2210;51.938;8.488;2023-07-13T13:55:37;100557.03;;;21.95;58.39
4392;BME280;2210;51.938;8.488;2023-07-13T13:59:38;100559.00;;;21.67;60.64
4392;BME280;2210;51.938;8.488;2023-07-13T14:03:40;100569.66;;;21.51;63.91
4392;BME280;2210;51.938;8.488;2023-07-13T14:07:40;100566.28;;;21.07;64.56
4392;BME280;2210;51.938;8.488;2023-07-13T14:11:42;100569.63;;;21.23;69.24
4392;BME280;2210;51.938;8.488;2023-07-13T14:15:42;100585.81;;;21.12;68.13
4392;BME280;2210;51.938;8.488;2023-07-13T14:19:43;100609.03;;;20.61;68.66
4392;BME280;2210;51.938;8.488;2023-07-13T14:23:44;100622.41;;;20.26;79.49
4392;BME280;2210;51.938;8.488;2023-07-13T14:27:48;100616.91;;;19.13;93.21
4392;BME280;2210;51.938;8.488;2023-07-13T14:31:49;100603.84;;;19.33;100.00
4392;BME280;2210;51.938;8.488;2023-07-13T14:35:50;100603.41;;;19.50;100.00
4392;BME280;2210;51.938;8.488;2023-07-13T14:39:51;100610.31;;;19.58;100.00
4392;BME280;2210;51.938;8.488;2023-07-13T14:43:52;100610.78;;;19.65;100.00
4392;BME280;2210;51.938;8.488;2023-07-13T14:47:52;100620.72;;;19.76;100.00
4392;BME280;2210;51.938;8.488;2023-07-13T14:51:54;100629.72;;;19.73;100.00
4392;BME280;2210;51.938;8.488;2023-07-13T14:55:54;100625.19;;;19.77;100.00
4392;BME280;2210;51.938;8.488;2023-07-13T14:59:55;100642.31;;;19.46;93.37
4392;BME280;2210;51.938;8.488;2023-07-13T15:03:55;100654.22;;;19.57;93.08
4392;BME280;2210;51.938;8.488;2023-07-13T15:07:58;100654.47;;;19.31;92.79
4392;BME280;2210;51.938;8.488;2023-07-13T15:11:59;100670.19;;;19.22;94.01
4392;BME280;2210;51.938;8.488;2023-07-13T15:16:00;100679.75;;;18.76;92.88
4392;BME280;2210;51.938;8.488;2023-07-13T15:20:01;100687.66;;;19.09;94.12
4392;BME280;2210;51.938;8.488;2023-07-13T15:24:02;100684.66;;;18.95;96.30
4392;BME280;2210;51.938;8.488;2023-07-13T15:28:03;100684.09;;;18.98;100.00
4392;BME280;2210;51.938;8.488;2023-07-13T15:32:03;100681.84;;;18.95;100.00
4392;BME280;2210;51.938;8.488;2023-07-13T15:36:05;100674.03;;;18.97;100.00
4392;BME280;2210;51.938;8.488;2023-07-13T15:40:06;100661.94;;;18.62;100.00
4392;BME280;2210;51.938;8.488;2023-07-13T15:44:33;100661.88;;;18.72;100.00
4392;BME280;2210;51.938;8.488;2023-07-13T15:48:36;100670.28;;;18.67;100.00
4392;BME280;2210;51.938;8.488;2023-07-13T15:52:40;100675.59;;;18.63;100.00
4392;BME280;2210;51.938;8.488;2023-07-13T15:56:42;100666.09;;;18.69;100.00
4392;BME280;2210;51.938;8.488;2023-07-13T16:00:43;100676.06;;;18.81;100.00
4392;BME280;2210;51.938;8.488;2023-07-13T16:04:46;100663.22;;;18.80;100.00
4392;BME280;2210;51.938;8.488;2023-07-13T16:08:47;100658.22;;;18.77;100.00
4392;BME280;2210;51.938;8.488;2023-07-13T16:12:49;100662.41;;;18.74;100.00
4392;BME280;2210;51.938;8.488;2023-07-13T16:16:49;100659.00;;;18.82;100.00
4392;BME280;2210;51.938;8.488;2023-07-13T16:20:50;100660.59;;;18.99;100.00
4392;BME280;2210;51.938;8.488;2023-07-13T16:24:51;100652.97;;;19.10;100.00
4392;BME280;2210;51.938;8.488;2023-07-13T16:28:55;100655.91;;;18.94;99.84
4392;BME280;2210;51.938;8.488;2023-07-13T16:33:02;100649.75;;;19.27;99.47
4392;BME280;2210;51.938;8.488;2023-07-13T16:37:16;100649.31;;;19.14;98.90
4392;BME280;2210;51.938;8.488;2023-07-13T16:41:21;100646.41;;;19.25;100.00
4392;BME280;2210;51.938;8.488;2023-07-13T16:45:23;100651.94;;;19.35;100.00
4392;BME280;2210;51.938;8.488;2023-07-13T16:49:30;100654.72;;;19.35;100.00
4392;BME280;2210;51.938;8.488;2023-07-13T16:53:31;100654.66;;;19.11;100.00
4392;BME280;2210;51.938;8.488;2023-07-13T16:57:32;100646.19;;;19.21;100.00
4392;BME280;2210;51.938;8.488;2023-07-13T17:01:33;100647.44;;;19.34;100.00
4392;BME280;2210;51.938;8.488;2023-07-13T17:05:43;100642.94;;;19.38;97.46
4392;BME280;2210;51.938;8.488;2023-07-13T17:09:49;100646.25;;;19.45;99.37
4392;BME280;2210;51.938;8.488;2023-07-13T17:13:52;100642.81;;;19.53;100.00
4392;BME280;2210;51.938;8.488;2023-07-13T17:17:53;100638.59;;;19.56;100.00
4392;BME280;2210;51.938;8.488;2023-07-13T17:22:11;100648.81;;;19.36;100.00
4392;BME280;2210;51.938;8.488;2023-07-13T17:26:17;100646.41;;;19.25;100.00
4392;BME280;2210;51.938;8.488;2023-07-13T17:30:21;100659.28;;;19.26;100.00
4392;BME280;2210;51.938;8.488;2023-07-13T17:34:23;100662.97;;;19.21;100.00
4392;BME280;2210;51.938;8.488;2023-07-13T17:38:50;100673.41;;;19.05;100.00
4392;BME280;2210;51.938;8.488;2023-07-13T17:42:56;100672.44;;;19.25;100.00
4392;BME280;2210;51.938;8.488;2023-07-13T17:46:57;100663.38;;;19.38;100.00
4392;BME280;2210;51.938;8.488;2023-07-13T17:50:58;100673.84;;;19.23;100.00
4392;BME280;2210;51.938;8.488;2023-07-13T17:54:59;100678.31;;;19.24;100.00
4392;BME280;2210;51.938;8.488;2023-07-13T17:59:05;100689.94;;;19.36;100.00
4392;BME280;2210;51.938;8.488;2023-07-13T18:03:13;100686.28;;;19.06;100.00
4392;BME280;2210;51.938;8.488;2023-07-13T18:07:24;100693.56;;;19.02;100.00
4392;BME280;2210;51.938;8.488;2023-07-13T18:11:37;100690.84;;;18.81;100.00
4392;BME280;2210;51.938;8.488;2023-07-13T18:15:38;100694.97;;;18.99;100.00
4392;BME280;2210;51.938;8.488;2023-07-13T18:19:41;100712.03;;;18.98;100.00
4392;BME280;2210;51.938;8.488;2023-07-13T18:23:46;100711.50;;;18.85;100.00
4392;BME280;2210;51.938;8.488;2023-07-13T18:27:47;100712.66;;;18.90;100.00
4392;BME280;2210;51.938;8.488;2023-07-13T18:31:49;100712.94;;;18.83;100.00
4392;BME280;2210;51.938;8.488;2023-07-13T18:35:50;100701.53;;;18.69;100.00
4392;BME280;2210;51.938;8.488;2023-07-13T18:39:52;100709.06;;;18.74;100.00
4392;BME280;2210;51.938;8.488;2023-07-13T18:43:52;100697.66;;;18.65;100.00
4392;BME280;2210;51.938;8.488;2023-07-13T18:47:55;100701.59;;;18.64;100.00
4392;BME280;2210;51.938;8.488;2023-07-13T18:52:07;100686.47;;;18.70;100.00
4392;BME280;2210;51.938;8.488;2023-07-13T18:56:14;100688.75;;;18.63;100.00
4392;BME280;2210;51.938;8.488;2023-07-13T19:00:15;100693.78;;;18.61;100.00
4392;BME280;2210;51.938;8.488;2023-07-13T19:04:31;100681.47;;;18.67;100.00
4392;BME280;2210;51.938;8.488;2023-07-13T19:08:32;100688.06;;;18.81;100.00
4392;BME280;2210;51.938;8.488;2023-07-13T19:12:33;100692.63;;;18.67;100.00
4392;BME280;2210;51.938;8.488;2023-07-13T19:16:33;100683.06;;;18.78;100.00
4392;BME280;2210;51.938;8.488;2023-07-13T19:20:33;100676.97;;;18.71;100.00
4392;BME280;2210;51.938;8.488;2023-07-13T19:24:34;100679.97;;;18.80;100.00
4392;BME280;2210;51.938;8.488;2023-07-13T19:28:50;100681.38;;;18.77;100.00
4392;BME280;2210;51.938;8.488;2023-07-13T19:32:52;100684.78;;;18.69;100.00
4392;BME280;2210;51.938;8.488;2023-07-13T19:37:02;100693.72;;;18.71;100.00
4392;BME280;2210;51.938;8.488;2023-07-13T19:41:04;100697.03;;;18.78;100.00
4392;BME280;2210;51.938;8.488;2023-07-13T19:45:04;100707.13;;;18.69;100.00
4392;BME280;2210;51.938;8.488;2023-07-13T19:49:13;100706.88;;;18.65;100.00
4392;BME280;2210;51.938;8.488;2023-07-13T19:53:17;100725.59;;;18.65;100.00
4392;BME280;2210;51.938;8.488;2023-07-13T19:57:28;100734.81;;;18.65;100.00
4392;BME280;2210;51.938;8.488;2023-07-13T20:01:29;100737.59;;;18.65;100.00
4392;BME280;2210;51.938;8.488;2023-07-13T20:05:29;100735.91;;;18.69;100.00
4392;BME280;2210;51.938;8.488;2023-07-13T20:09:33;100752.44;;;18.56;100.00
4392;BME280;2210;51.938;8.488;2023-07-13T20:13:34;100746.59;;;18.57;100.00
4392;BME280;2210;51.938;8.488;2023-07-13T20:17:36;100746.91;;;18.50;100.00
4392;BME280;2210;51.938;8.488;2023-07-13T20:21:37;100749.94;;;18.54;100.00
4392;BME280;2210;51.938;8.488;2023-07-13T20:25:41;100755.56;;;18.49;100.00
4392;BME280;2210;51.938;8.488;2023-07-13T20:29:42;100746.38;;;18.38;100.00
4392;BME280;2210;51.938;8.488;2023-07-13T20:33:42;100749.13;;;18.43;100.00
4392;BME280;2210;51.938;8.488;2023-07-13T20:37:43;100758.94;;;18.35;100.00
4392;BME280;2210;51.938;8.488;2023-07-13T20:41:45;100754.78;;;18.28;100.00
4392;BME280;2210;51.938;8.488;2023-07-13T20:45:58;100755.59;;;18.28;100.00
4392;BME280;2210;51.938;8.488;2023-07-13T20:49:58;100766.53;;;18.14;100.00
4392;BME280;2210;51.938;8.488;2023-07-13T20:54:02;100769.03;;;18.11;100.00
4392;BME280;2210;51.938;8.488;2023-07-13T20:58:02;100775.47;;;18.01;100.00
4392;BME280;2210;51.938;8.488;2023-07-13T21:02:33;100773.28;;;17.93;100.00
4392;BME280;2210;51.938;8.488;2023-07-13T21:06:33;100771.00;;;17.84;100.00
4392;BME280;2210;51.938;8.488;2023-07-13T21:10:33;100769.91;;;17.80;100.00
4392;BME280;2210;51.938;8.488;2023-07-13T21:14:34;100767.69;;;17.72;100.00
4392;BME280;2210;51.938;8.488;2023-07-13T21:18:44;100765.16;;;17.60;100.00
4392;BME280;2210;51.938;8.488;2023-07-13T21:22:44;100773.53;;;17.55;100.00
4392;BME280;2210;51.938;8.488;2023-07-13T21:26:48;100761.28;;;17.46;100.00
4392;BME280;2210;51.938;8.488;2023-07-13T21:30:58;100762.66;;;17.33;100.00
4392;BME280;2210;51.938;8.488;2023-07-13T21:34:59;100765.97;;;17.19;100.00
4392;BME280;2210;51.938;8.488;2023-07-13T21:39:12;100772.06;;;17.01;100.00
4392;BME280;2210;51.938;8.488;2023-07-13T21:43:27;100770.13;;;17.01;100.00
4392;BME280;2210;51.938;8.488;2023-07-13T21:47:36;100767.63;;;17.00;100.00
4392;BME280;2210;51.938;8.488;2023-07-13T21:51:43;100774.31;;;17.04;100.00
4392;BME280;2210;51.938;8.488;2023-07-13T21:55:43;100789.31;;;16.93;100.00
4392;BME280;2210;51.938;8.488;2023-07-13T21:59:43;100784.75;;;16.76;100.00
4392;BME280;2210;51.938;8.488;2023-07-13T22:03:50;100787.22;;;16.62;100.00
4392;BME280;2210;51.938;8.488;2023-07-13T22:07:51;100779.66;;;16.52;100.00
4392;BME280;2210;51.938;8.488;2023-07-13T22:11:51;100786.03;;;16.48;100.00
4392;BME280;2210;51.938;8.488;2023-07-13T22:15:55;100784.97;;;16.54;100.00
4392;BME280;2210;51.938;8.488;2023-07-13T22:19:55;100787.50;;;16.61;100.00